Time;durP1;ratioP1;P1;durP2;ratioP2;P2;SDS_P1;SDS_P2;PMS_P1;PMS_P2;Temp;Humidity;BMP_temperature;BMP_pressure;BME280_temperature;BME280_humidity;BME280_pressure;Samples;Min_cycle;Max_cycle;Signal;HPM_P1;HPM_P2
2021/07/08 02:52:54;0.00;0.00;0.62;0.00;0.00;0.62;;;;;21.10;9.20;;;;;;2271501;61;882;-88
2021/07/08 04:59:44;0.00;0.00;0.62;0.00;0.00;0.62;;;;;22.30;5.50;;;;;;2505436;55;3671;31
2021/07/08 05:02:20;158759.00;0.53;274.90;0.00;0.00;0.62;;;;;22.00;7.00;;;;;;2496785;55;3666;31
2021/07/08 10:01:29;0.00;0.00;0.62;0.00;0.00;0.62;;;;;26.00;1.10;;;;;;2262452;61;1222;-87
2021/07/08 10:03:57;40697.00;0.14;71.09;0.00;0.00;0.62;;;;;25.90;1.00;;;;;;2261015;61;954;-86
2021/07/08 10:06:24;0.00;0.00;0.62;0.00;0.00;0.62;;;;;26.10;1.00;;;;;;2260464;61;1212;-86
2021/07/08 10:08:51;6459.00;0.02;11.81;0.00;0.00;0.62;;;;;26.30;1.00;;;;;;2260895;61;2001;-86
2021/07/08 10:11:20;0.00;0.00;0.62;0.00;0.00;0.62;;;;;26.10;1.00;;;;;;2260225;61;1004;-86
2021/07/08 10:13:47;0.00;0.00;0.62;0.00;0.00;0.62;;;;;25.60;1.00;;;;;;2250704;61;1024;-87
2021/07/08 10:16:17;15599.00;0.05;27.65;0.00;0.00;0.62;;;;;26.00;1.00;;;;;;2260617;61;1124;-86
2021/07/08 10:18:48;0.00;0.00;0.62;0.00;0.00;0.62;;;;;26.20;1.00;;;;;;2260913;61;1341;-86
2021/07/08 10:21:17;319.00;0.00;1.17;0.00;0.00;0.62;;;;;26.30;1.00;;;;;;2250681;61;948;-85
2021/07/08 10:23:45;0.00;0.00;0.62;0.00;0.00;0.62;;;;;26.20;1.00;;;;;;2250609;61;1066;-86
2021/07/08 10:26:12;171293.00;0.57;296.49;78358.00;0.26;136.20;;;;;25.90;1.00;;;;;;2250629;61;1057;-86
2021/07/08 10:28:43;0.00;0.00;0.62;0.00;0.00;0.62;;;;;26.10;1.00;;;;;;2260866;61;1385;-85
2021/07/08 10:31:14;0.00;0.00;0.62;0.00;0.00;0.62;;;;;26.30;1.00;;;;;;2260830;61;1931;-87
2021/07/08 10:33:41;0.00;0.00;0.62;0.00;0.00;0.62;;;;;26.60;1.00;;;;;;2260748;61;1093;-86
2021/07/08 10:36:10;10319.00;0.03;18.50;0.00;0.00;0.62;;;;;26.70;1.00;;;;;;2260915;61;1059;-86
2021/07/08 10:38:40;8835.00;0.03;15.93;0.00;0.00;0.62;;;;;26.30;1.00;;;;;;2260730;61;1444;-86
2021/07/08 10:41:40;0.00;0.00;0.62;0.00;0.00;0.62;;;;;26.30;1.00;;;;;;2250623;61;997;-86
2021/07/08 10:44:49;0.00;0.00;0.62;0.00;0.00;0.62;;;;;26.60;1.00;;;;;;2234022;61;1060;-86
2021/07/08 10:47:37;11102.00;0.04;19.86;0.00;0.00;0.62;;;;;26.10;1.00;;;;;;2240473;61;1444;-85
2021/07/08 10:50:07;19978.00;0.07;35.23;0.00;0.00;0.62;;;;;25.60;1.00;;;;;;2240432;61;1914;-86
2021/07/08 10:52:48;198763.00;0.66;343.79;69096.00;0.23;120.20;;;;;25.70;1.00;;;;;;2233942;61;1023;-87
2021/07/08 10:55:37;33670.00;0.11;58.94;0.00;0.00;0.62;;;;;26.10;1.00;;;;;;2240564;61;1144;-86
2021/07/08 10:58:04;206624.00;0.69;357.33;66713.00;0.22;116.08;;;;;26.20;1.00;;;;;;2240518;61;1438;-86
2021/07/08 11:00:46;374433.00;1.25;645.86;77532.00;0.26;134.77;;;;;25.80;1.00;;;;;;2240426;61;1020;-86
2021/07/08 11:03:38;434176.00;1.45;748.57;98916.00;0.33;171.70;;;;;25.60;1.00;;;;;;2240547;61;1118;-86
2021/07/08 11:06:20;189941.00;0.63;328.61;68778.00;0.23;119.65;;;;;25.60;1.00;;;;;;2232484;62;1099;-87
2021/07/08 11:08:59;51109.00;0.17;89.10;0.00;0.00;0.62;;;;;25.70;1.00;;;;;;2229378;62;1322;-86
2021/07/08 11:12:01;9419.00;0.03;16.94;0.00;0.00;0.62;;;;;26.20;1.00;;;;;;2229314;62;2006;-86
2021/07/08 11:14:31;15690.00;0.05;27.81;0.00;0.00;0.62;;;;;26.50;1.00;;;;;;2232396;62;1195;-86
2021/07/08 11:17:02;0.00;0.00;0.62;0.00;0.00;0.62;;;;;26.80;1.00;;;;;;2232491;62;1371;-86
2021/07/08 11:19:50;148270.00;0.49;256.83;8550.00;0.03;15.44;;;;;26.80;1.00;;;;;;2232523;62;1701;-87
2021/07/08 11:22:41;0.00;0.00;0.62;0.00;0.00;0.62;;;;;27.10;1.00;;;;;;2248340;61;1112;-86
2021/07/08 11:25:11;0.00;0.00;0.62;0.00;0.00;0.62;;;;;26.90;1.00;;;;;;2242740;61;1035;-86
2021/07/08 11:27:41;0.00;0.00;0.62;0.00;0.00;0.62;;;;;26.80;1.00;;;;;;2241746;61;1395;-87
2021/07/08 11:30:26;0.00;0.00;0.62;0.00;0.00;0.62;;;;;26.70;1.00;;;;;;2238486;61;1921;-86
2021/07/08 11:32:56;36145.00;0.12;63.22;0.00;0.00;0.62;;;;;26.60;1.00;;;;;;2245018;61;1003;-87
2021/07/08 11:35:26;0.00;0.00;0.62;0.00;0.00;0.62;;;;;26.70;1.00;;;;;;2247936;61;1143;-87
2021/07/08 11:37:57;412529.00;1.38;711.35;128541.00;0.43;222.81;;;;;26.50;1.00;;;;;;2238464;61;1311;-87
2021/07/08 11:40:25;47565.00;0.16;82.97;0.00;0.00;0.62;;;;;26.80;1.00;;;;;;2241710;62;949;-86
2021/07/08 11:42:53;8240.00;0.03;14.90;0.00;0.00;0.62;;;;;26.80;1.00;;;;;;2243565;61;1000;-87
2021/07/08 11:45:22;0.00;0.00;0.62;0.00;0.00;0.62;;;;;26.80;1.00;;;;;;2260686;61;941;-86
2021/07/08 11:47:51;0.00;0.00;0.62;0.00;0.00;0.62;;;;;26.90;1.00;;;;;;2260637;61;1317;-87
2021/07/08 11:50:21;0.00;0.00;0.62;0.00;0.00;0.62;;;;;27.00;1.00;;;;;;2250337;61;2001;-86
2021/07/08 11:52:50;0.00;0.00;0.62;0.00;0.00;0.62;;;;;26.80;1.00;;;;;;2250388;61;1000;-87
2021/07/08 11:55:28;0.00;0.00;0.62;0.00;0.00;0.62;;;;;26.70;1.00;;;;;;2260305;61;1005;-86
2021/07/08 11:58:00;0.00;0.00;0.62;0.00;0.00;0.62;;;;;27.00;1.00;;;;;;2260613;61;1310;-86
2021/07/08 12:00:28;132900.00;0.44;230.33;0.00;0.00;0.62;;;;;26.70;1.00;;;;;;2260516;61;1287;-86
2021/07/08 12:02:55;0.00;0.00;0.62;0.00;0.00;0.62;;;;;26.60;1.00;;;;;;2250277;61;1029;-86
2021/07/08 12:05:22;66826.00;0.22;116.28;0.00;0.00;0.62;;;;;26.70;1.00;;;;;;2260541;61;1044;-87
2021/07/08 12:07:52;11732.00;0.04;20.95;0.00;0.00;0.62;;;;;27.10;1.00;;;;;;2260523;61;1459;-86
2021/07/08 12:10:24;43061.00;0.14;75.18;0.00;0.00;0.62;;;;;26.80;1.00;;;;;;2260512;61;2002;-86
2021/07/08 12:12:54;87642.00;0.29;152.24;0.00;0.00;0.62;;;;;26.60;1.00;;;;;;2260608;61;1015;-86
2021/07/08 12:15:22;23744.00;0.08;41.75;0.00;0.00;0.62;;;;;26.70;1.00;;;;;;2250315;61;1032;-86
2021/07/08 12:17:54;28148.00;0.09;49.38;0.00;0.00;0.62;;;;;26.80;1.00;;;;;;2260556;61;1399;-86
2021/07/08 12:20:21;0.00;0.00;0.62;0.00;0.00;0.62;;;;;26.80;1.00;;;;;;2260572;61;1093;-86
2021/07/08 12:22:56;12185.00;0.04;21.73;0.00;0.00;0.62;;;;;26.50;1.00;;;;;;2260396;61;999;-88
2021/07/08 12:25:25;0.00;0.00;0.62;0.00;0.00;0.62;;;;;26.70;1.00;;;;;;2250290;61;1020;-86
2021/07/08 12:27:52;31005.00;0.10;54.32;0.00;0.00;0.62;;;;;26.70;1.00;;;;;;2260261;61;1456;-86
2021/07/08 12:30:23;0.00;0.00;0.62;0.00;0.00;0.62;;;;;26.20;1.00;;;;;;2260504;61;1920;-86
2021/07/08 12:33:03;0.00;0.00;0.62;0.00;0.00;0.62;;;;;26.40;1.00;;;;;;2260562;61;1157;-85
2021/07/08 12:35:41;85322.00;0.28;148.23;0.00;0.00;0.62;;;;;26.40;1.00;;;;;;2260427;61;1041;-86
2021/07/08 12:38:08;0.00;0.00;0.62;0.00;0.00;0.62;;;;;26.30;1.00;;;;;;2250208;61;1331;-86
2021/07/08 12:40:35;47445.00;0.16;82.77;0.00;0.00;0.62;;;;;26.20;1.00;;;;;;2250092;61;985;-87
2021/07/08 12:43:07;0.00;0.00;0.62;0.00;0.00;0.62;;;;;26.20;1.00;;;;;;2250236;61;1020;-86
2021/07/08 12:45:38;237414.00;0.79;410.30;70187.00;0.23;122.08;;;;;26.10;1.00;;;;;;2260483;61;1120;-87
2021/07/08 12:48:09;0.00;0.00;0.62;0.00;0.00;0.62;;;;;25.90;1.00;;;;;;2250227;61;1330;-86
2021/07/08 12:50:38;0.00;0.00;0.62;0.00;0.00;0.62;;;;;25.70;1.00;;;;;;2260463;61;1990;-86
2021/07/08 12:53:07;6609.00;0.02;12.07;0.00;0.00;0.62;;;;;25.50;1.00;;;;;;2260504;61;914;-88
2021/07/08 12:55:41;0.00;0.00;0.62;0.00;0.00;0.62;;;;;25.40;1.00;;;;;;2250219;61;1029;-87
2021/07/08 12:58:10;0.00;0.00;0.62;0.00;0.00;0.62;;;;;26.10;1.00;;;;;;2260437;61;1313;-86
2021/07/08 13:00:38;0.00;0.00;0.62;0.00;0.00;0.62;;;;;26.50;1.00;;;;;;2260499;61;897;-85
2021/07/08 13:03:06;40939.00;0.14;71.51;0.00;0.00;0.62;;;;;26.70;1.00;;;;;;2260123;61;1104;-86
2021/07/08 13:05:39;7946.00;0.03;14.39;0.00;0.00;0.62;;;;;27.00;1.00;;;;;;2260384;61;1009;-86
2021/07/08 13:08:11;0.00;0.00;0.62;0.00;0.00;0.62;;;;;26.90;1.00;;;;;;2260396;61;1306;-86
2021/07/08 13:10:42;10358.00;0.03;18.57;0.00;0.00;0.62;;;;;26.20;1.00;;;;;;2260172;61;1910;-87
2021/07/08 13:13:10;0.00;0.00;0.62;0.00;0.00;0.62;;;;;26.00;1.00;;;;;;2260424;61;1113;-86
2021/07/08 13:15:44;0.00;0.00;0.62;0.00;0.00;0.62;;;;;25.90;1.00;;;;;;2250166;61;1017;-87
2021/07/08 13:18:12;0.00;0.00;0.62;0.00;0.00;0.62;;;;;26.20;1.00;;;;;;2260362;61;1370;-86
2021/07/08 13:20:42;31447.00;0.10;55.09;0.00;0.00;0.62;;;;;25.70;1.00;;;;;;2260367;61;1050;-88
2021/07/08 13:23:14;61885.00;0.21;107.74;0.00;0.00;0.62;;;;;25.70;1.00;;;;;;2250098;61;987;-87
2021/07/08 13:25:42;0.00;0.00;0.62;0.00;0.00;0.62;;;;;25.60;1.00;;;;;;2253379;61;978;-87
2021/07/08 13:28:28;50955.00;0.17;88.84;0.00;0.00;0.62;;;;;26.00;1.00;;;;;;2260330;61;1264;-88
2021/07/08 13:31:09;75699.00;0.25;131.61;0.00;0.00;0.62;;;;;26.20;1.00;;;;;;2260341;61;1987;-87
2021/07/08 13:33:41;0.00;0.00;0.62;0.00;0.00;0.62;;;;;25.50;1.00;;;;;;2260351;61;1030;-87
2021/07/08 13:36:12;0.00;0.00;0.62;0.00;0.00;0.62;;;;;25.50;1.00;;;;;;2253399;61;986;-87
2021/07/08 13:38:41;41195.00;0.14;71.96;0.00;0.00;0.62;;;;;25.40;1.00;;;;;;2253332;61;1462;-86
2021/07/08 13:41:11;163734.00;0.55;283.47;0.00;0.00;0.62;;;;;25.40;1.00;;;;;;2250054;61;1018;-87
2021/07/08 13:43:55;0.00;0.00;0.62;0.00;0.00;0.62;;;;;25.30;1.00;;;;;;2250085;61;1008;-90
2021/07/08 13:46:29;42703.00;0.14;74.56;0.00;0.00;0.62;;;;;25.10;1.00;;;;;;2260298;61;906;-87
2021/07/08 13:49:07;0.00;0.00;0.62;0.00;0.00;0.62;;;;;25.70;1.00;;;;;;2249934;61;1485;-89
2021/07/08 13:51:35;0.00;0.00;0.62;0.00;0.00;0.62;;;;;26.00;1.00;;;;;;2250076;61;2005;-87
2021/07/08 13:54:03;0.00;0.00;0.62;0.00;0.00;0.62;;;;;25.90;1.00;;;;;;2250632;61;1019;-88
2021/07/08 13:56:30;87304.00;0.29;151.65;0.00;0.00;0.62;;;;;26.30;1.00;;;;;;2260968;61;932;-86
2021/07/08 13:58:57;0.00;0.00;0.62;0.00;0.00;0.62;;;;;26.40;1.00;;;;;;2250552;61;1318;-85
2021/07/08 14:01:25;0.00;0.00;0.62;0.00;0.00;0.62;;;;;26.90;1.00;;;;;;2250504;61;957;-86
2021/07/08 14:03:52;0.00;0.00;0.62;0.00;0.00;0.62;;;;;26.90;1.00;;;;;;2260678;61;1100;-86
2021/07/08 14:06:19;118185.00;0.39;204.95;0.00;0.00;0.62;;;;;26.50;1.00;;;;;;2260886;61;1131;-85
2021/07/08 14:08:47;12107.00;0.04;21.60;0.00;0.00;0.62;;;;;26.50;1.00;;;;;;2260874;61;1384;-84
2021/07/08 14:11:15;0.00;0.00;0.62;0.00;0.00;0.62;;;;;26.80;1.00;;;;;;2260882;61;1911;-84
2021/07/08 14:13:43;0.00;0.00;0.62;0.00;0.00;0.62;;;;;26.10;1.00;;;;;;2260926;61;1093;-86
2021/07/08 14:16:11;0.00;0.00;0.62;0.00;0.00;0.62;;;;;25.80;1.00;;;;;;2260890;61;1028;-84
2021/07/08 14:18:39;38396.00;0.13;67.11;0.00;0.00;0.62;;;;;25.70;1.00;;;;;;2260554;61;1428;-85
2021/07/08 14:21:07;0.00;0.00;0.62;0.00;0.00;0.62;;;;;25.90;1.00;;;;;;2260640;61;1069;-86
2021/07/08 14:23:34;87084.00;0.29;151.27;0.00;0.00;0.62;;;;;26.00;1.00;;;;;;2259985;61;1148;-86
2021/07/08 14:26:01;0.00;0.00;0.62;0.00;0.00;0.62;;;;;25.80;1.00;;;;;;2260341;61;1191;-87
2021/07/08 14:28:28;133902.00;0.45;232.06;19913.00;0.07;35.12;;;;;25.90;1.00;;;;;;2260298;61;1283;-86
2021/07/08 14:30:56;0.00;0.00;0.62;0.00;0.00;0.62;;;;;25.60;1.00;;;;;;2260097;61;1920;-86
2021/07/08 14:33:23;0.00;0.00;0.62;0.00;0.00;0.62;;;;;25.30;1.00;;;;;;2253265;61;1130;-86
2021/07/08 14:35:53;0.00;0.00;0.62;0.00;0.00;0.62;;;;;25.20;1.00;;;;;;2260555;61;1114;-87
2021/07/08 14:38:20;0.00;0.00;0.62;0.00;0.00;0.62;;;;;25.30;1.00;;;;;;2260444;61;1301;-86
2021/07/08 14:40:48;31886.00;0.11;55.85;0.00;0.00;0.62;;;;;25.20;1.00;;;;;;2260211;61;1159;-86
2021/07/08 14:43:35;0.00;0.00;0.62;0.00;0.00;0.62;;;;;25.10;1.00;;;;;;2260737;61;1175;-87
2021/07/08 14:46:06;0.00;0.00;0.62;0.00;0.00;0.62;;;;;24.50;1.00;;;;;;2260824;61;1058;-85
2021/07/08 14:48:34;0.00;0.00;0.62;0.00;0.00;0.62;;;;;24.50;1.00;;;;;;2260686;61;1460;-86
2021/07/08 14:51:02;42211.00;0.14;73.71;0.00;0.00;0.62;;;;;24.10;1.00;;;;;;2260678;61;2013;-86
2021/07/08 14:53:29;28185.00;0.09;49.44;0.00;0.00;0.62;;;;;24.10;1.00;;;;;;2260103;61;1151;-86
2021/07/08 14:55:57;25098.00;0.08;44.10;0.00;0.00;0.62;;;;;24.20;1.00;;;;;;2260432;61;1198;-86
2021/07/08 14:58:23;0.00;0.00;0.62;0.00;0.00;0.62;;;;;24.50;1.00;;;;;;2259685;61;1378;-86
2021/07/08 15:00:51;0.00;0.00;0.62;0.00;0.00;0.62;;;;;24.10;1.40;;;;;;2260201;61;1136;-86
2021/07/08 15:03:18;0.00;0.00;0.62;0.00;0.00;0.62;;;;;23.90;1.20;;;;;;2259550;61;1097;-87
2021/07/08 15:05:45;6691.00;0.02;12.22;0.00;0.00;0.62;;;;;23.60;2.10;;;;;;2259740;61;1136;-86
2021/07/08 15:08:13;0.00;0.00;0.62;0.00;0.00;0.62;;;;;23.60;2.40;;;;;;2260248;61;1354;-85
2021/07/08 15:10:40;0.00;0.00;0.62;0.00;0.00;0.62;;;;;23.60;2.70;;;;;;2260227;61;2002;-86
2021/07/08 15:13:07;818.00;0.00;2.04;0.00;0.00;0.62;;;;;23.80;2.70;;;;;;2260492;61;930;-87
2021/07/08 15:15:34;0.00;0.00;0.62;0.00;0.00;0.62;;;;;24.40;1.90;;;;;;2260379;61;925;-88
2021/07/08 15:18:01;0.00;0.00;0.62;0.00;0.00;0.62;;;;;24.90;1.00;;;;;;2260197;61;1353;-86
2021/07/08 15:20:28;0.00;0.00;0.62;0.00;0.00;0.62;;;;;24.90;1.00;;;;;;2260541;61;1153;-87
2021/07/08 15:22:55;0.00;0.00;0.62;0.00;0.00;0.62;;;;;24.70;1.00;;;;;;2260518;61;1031;-86
2021/07/08 15:25:23;75061.00;0.25;130.51;0.00;0.00;0.62;;;;;24.70;1.00;;;;;;2260623;61;1105;-87
2021/07/08 15:27:51;0.00;0.00;0.62;0.00;0.00;0.62;;;;;24.90;1.00;;;;;;2260291;61;1269;-86
2021/07/08 15:30:18;0.00;0.00;0.62;0.00;0.00;0.62;;;;;25.00;1.00;;;;;;2260326;61;1147;-86
2021/07/08 15:32:50;0.00;0.00;0.62;0.00;0.00;0.62;;;;;24.90;1.00;;;;;;2260557;61;1961;-86
2021/07/08 15:35:17;29716.00;0.10;52.09;0.00;0.00;0.62;;;;;24.90;1.00;;;;;;2260357;61;1071;-87
2021/07/08 15:37:44;163850.00;0.55;283.67;46479.00;0.15;81.10;;;;;24.70;1.00;;;;;;2260055;61;1345;-86
2021/07/08 15:40:11;0.00;0.00;0.62;0.00;0.00;0.62;;;;;24.60;1.00;;;;;;2260588;61;1145;-85
2021/07/08 15:42:40;0.00;0.00;0.62;0.00;0.00;0.62;;;;;24.60;1.00;;;;;;2259749;61;1149;-86
2021/07/08 15:45:08;0.00;0.00;0.62;0.00;0.00;0.62;;;;;24.80;1.00;;;;;;2260271;61;1228;-86
2021/07/08 15:47:35;0.00;0.00;0.62;0.00;0.00;0.62;;;;;24.70;1.00;;;;;;2260498;61;1310;-85
2021/07/08 15:50:04;25342.00;0.08;44.52;0.00;0.00;0.62;;;;;24.50;1.00;;;;;;2260614;61;1136;-86
2021/07/08 15:52:31;0.00;0.00;0.62;0.00;0.00;0.62;;;;;24.60;1.00;;;;;;2260416;61;2009;-86
2021/07/08 15:54:58;0.00;0.00;0.62;0.00;0.00;0.62;;;;;24.80;1.00;;;;;;2260595;61;1095;-87
2021/07/08 15:57:26;0.00;0.00;0.62;0.00;0.00;0.62;;;;;24.90;1.00;;;;;;2260120;61;1303;-86
2021/07/08 17:14:40;0.00;0.00;0.62;0.00;0.00;0.62;;;;;24.30;1.00;;;;;;2266766;61;861;-89
2021/07/08 17:29:29;0.00;0.00;0.62;0.00;0.00;0.62;;;;;24.70;1.00;;;;;;2267070;61;1318;-84
2021/07/08 17:31:57;134212.00;0.45;232.59;0.00;0.00;0.62;;;;;24.80;1.00;;;;;;2265389;61;1921;-82
2021/07/08 17:46:44;0.00;0.00;0.62;0.00;0.00;0.62;;;;;24.00;1.00;;;;;;2342708;40;3722;31
2021/07/08 17:51:40;0.00;0.00;0.62;0.00;0.00;0.62;;;;;23.90;1.00;;;;;;2266979;61;1906;-83
2021/07/08 17:56:35;0.00;0.00;0.62;0.00;0.00;0.62;;;;;23.80;1.00;;;;;;2267211;61;1312;-85
2021/07/08 18:16:20;0.00;0.00;0.62;0.00;0.00;0.62;;;;;23.50;1.40;;;;;;2266576;61;1284;-84
2021/07/08 18:26:15;0.00;0.00;0.62;0.00;0.00;0.62;;;;;23.30;1.20;;;;;;2266944;61;1342;-82
2021/07/08 18:41:02;0.00;0.00;0.62;0.00;0.00;0.62;;;;;22.90;2.50;;;;;;2267402;61;1281;-83
2021/07/08 18:45:57;0.00;0.00;0.62;0.00;0.00;0.62;;;;;23.20;1.40;;;;;;2267766;61;1292;-84
2021/07/08 18:48:24;0.00;0.00;0.62;0.00;0.00;0.62;;;;;23.00;2.50;;;;;;2265662;61;1411;-87
2021/07/08 18:53:18;0.00;0.00;0.62;0.00;0.00;0.62;;;;;22.20;5.00;;;;;;2267407;61;1305;-83
2021/07/08 18:58:15;216719.00;0.72;374.70;22017.00;0.07;38.76;;;;;22.40;4.60;;;;;;2267183;61;1305;-83
2021/07/08 19:03:10;124621.00;0.42;216.05;0.00;0.00;0.62;;;;;22.90;2.70;;;;;;2267559;61;1285;-85
2021/07/08 19:05:37;0.00;0.00;0.62;0.00;0.00;0.62;;;;;22.80;2.60;;;;;;2265122;61;1119;-86
2021/07/08 19:10:32;0.00;0.00;0.62;0.00;0.00;0.62;;;;;22.80;2.60;;;;;;2267790;61;1296;-84
2021/07/08 19:15:30;0.00;0.00;0.62;0.00;0.00;0.62;;;;;23.00;2.90;;;;;;2267392;61;1379;-84
2021/07/08 19:20:25;0.00;0.00;0.62;0.00;0.00;0.62;;;;;22.60;3.90;;;;;;2267462;61;1327;-87
2021/07/08 19:42:36;130770.00;0.44;226.66;63885.00;0.21;111.19;;;;;20.90;10.60;;;;;;2267278;61;925;-86
2021/07/08 19:54:54;0.00;0.00;0.62;0.00;0.00;0.62;;;;;20.90;11.90;;;;;;2267611;61;1304;-87
2021/07/08 19:57:21;0.00;0.00;0.62;0.00;0.00;0.62;;;;;20.90;12.00;;;;;;2257156;61;872;-89
2021/07/08 20:17:04;0.00;0.00;0.62;0.00;0.00;0.62;;;;;21.60;7.30;;;;;;2266436;61;1120;-84
2021/07/08 20:31:50;0.00;0.00;0.62;0.00;0.00;0.62;;;;;21.60;7.50;;;;;;2435972;40;3691;31
2021/07/08 20:46:37;0.00;0.00;0.62;0.00;0.00;0.62;;;;;21.90;6.40;;;;;;2266354;61;1174;-83
2021/07/08 20:53:59;12529.00;0.04;22.33;0.00;0.00;0.62;;;;;22.20;5.60;;;;;;2266357;61;1225;-82
2021/07/08 21:03:51;0.00;0.00;0.62;0.00;0.00;0.62;;;;;22.00;4.70;;;;;;2267178;61;1186;-85
2021/07/08 21:11:13;0.00;0.00;0.62;0.00;0.00;0.62;;;;;21.90;5.70;;;;;;2506104;40;3531;31
2021/07/08 21:13:40;25459.00;0.08;44.72;0.00;0.00;0.62;;;;;22.00;5.10;;;;;;2504166;40;3701;31
2021/07/08 21:18:35;301305.00;1.00;520.16;24188.00;0.08;42.52;;;;;21.90;4.80;;;;;;2422672;40;3696;31
2021/07/08 21:21:06;0.00;0.00;0.62;0.00;0.00;0.62;;;;;21.50;7.00;;;;;;2271278;61;1408;-81
2021/07/08 21:26:01;0.00;0.00;0.62;0.00;0.00;0.62;;;;;21.10;7.00;;;;;;2267204;61;1407;-78
2021/07/08 21:35:51;307252.00;1.02;530.39;58368.00;0.19;101.66;;;;;21.30;7.00;;;;;;2273947;46;1315;-80
2021/07/08 21:38:24;24388.00;0.08;42.87;0.00;0.00;0.62;;;;;21.50;6.20;;;;;;2265379;61;1251;-82
2021/07/08 21:40:51;0.00;0.00;0.62;0.00;0.00;0.62;;;;;21.30;7.20;;;;;;2261430;61;1014;-79
2021/07/08 21:43:18;5121.00;0.02;9.50;0.00;0.00;0.62;;;;;21.30;6.40;;;;;;2260910;61;998;-82
2021/07/08 21:48:15;0.00;0.00;0.62;0.00;0.00;0.62;;;;;21.70;5.40;;;;;;2267023;61;1407;-84
2021/07/08 21:50:43;0.00;0.00;0.62;0.00;0.00;0.62;;;;;21.60;5.20;;;;;;2265469;61;957;-82
2021/07/08 21:53:11;0.00;0.00;0.62;0.00;0.00;0.62;;;;;21.40;5.50;;;;;;2260867;61;1911;-82
2021/07/08 21:55:40;0.00;0.00;0.62;0.00;0.00;0.62;;;;;21.30;6.10;;;;;;2260882;61;1010;-80
2021/07/08 21:58:08;96294.00;0.32;167.17;0.00;0.00;0.62;;;;;21.40;5.30;;;;;;2260873;61;1421;-82
2021/07/08 22:03:05;296891.00;0.99;512.58;75620.00;0.25;131.47;;;;;21.80;4.80;;;;;;2266668;61;1406;-92
2021/07/08 22:05:33;195025.00;0.65;337.36;0.00;0.00;0.62;;;;;21.90;4.20;;;;;;2265207;61;1045;-91
2021/07/08 22:08:01;3493.00;0.01;6.67;0.00;0.00;0.62;;;;;22.20;3.40;;;;;;2265169;61;1098;-92
2021/07/08 22:10:28;33983.00;0.11;59.48;0.00;0.00;0.62;;;;;22.20;2.80;;;;;;2256631;61;1368;-91
2021/07/08 22:12:58;351064.00;1.17;605.69;123479.00;0.41;214.08;;;;;22.20;3.50;;;;;;2256437;61;2006;-91
2021/07/08 22:15:25;0.00;0.00;0.62;0.00;0.00;0.62;;;;;22.20;3.10;;;;;;2256706;61;1028;-91
2021/07/08 22:17:53;173147.00;0.58;299.69;59396.00;0.20;103.43;;;;;21.80;3.70;;;;;;2256700;61;1031;-91
2021/07/08 22:20:20;88407.00;0.29;153.56;13673.00;0.05;24.31;;;;;21.80;3.80;;;;;;2256699;61;1472;-92
2021/07/08 22:22:47;153295.00;0.51;265.49;0.00;0.00;0.62;;;;;22.00;3.60;;;;;;2256681;61;1020;-93
2021/07/08 22:25:14;63403.00;0.21;110.36;9996.00;0.03;17.94;;;;;22.10;3.10;;;;;;2256732;61;1021;-91
2021/07/08 22:27:45;80031.00;0.27;139.09;13096.00;0.04;23.31;;;;;22.20;3.40;;;;;;2257260;61;1120;-92
2021/07/08 22:30:15;523004.00;1.74;901.44;139804.00;0.47;242.23;;;;;22.20;3.30;;;;;;2261113;61;1448;-90
2021/07/08 22:32:42;254951.00;0.85;440.47;85216.00;0.28;148.05;;;;;22.40;3.30;;;;;;2261127;61;1914;-90
2021/07/08 22:35:10;373984.00;1.25;645.08;55894.00;0.19;97.38;;;;;22.50;3.20;;;;;;2256652;61;1042;-91
2021/07/08 22:37:37;171749.00;0.57;297.28;71970.00;0.24;125.16;;;;;22.20;3.80;;;;;;2252625;61;1054;-92
2021/07/08 22:40:06;606152.00;2.02;1044.84;97750.00;0.33;169.69;;;;;22.30;3.40;;;;;;2252655;61;1413;-92
2021/07/08 22:42:34;28210.00;0.09;49.48;0.00;0.00;0.62;;;;;22.40;2.80;;;;;;2240742;61;957;-92
2021/07/08 22:45:01;239102.00;0.80;413.21;70336.00;0.23;122.34;;;;;22.50;2.90;;;;;;2237494;61;1049;-91
2021/07/08 22:47:32;4894.00;0.02;9.10;0.00;0.00;0.62;;;;;22.50;2.20;;;;;;2240771;61;1146;-91
2021/07/08 22:49:59;222398.00;0.74;384.47;67766.00;0.23;117.90;;;;;22.20;3.40;;;;;;2240772;61;1416;-90
2021/07/08 22:52:25;277296.00;0.92;478.89;65164.00;0.22;113.40;;;;;21.90;3.20;;;;;;2232274;61;1948;-91
2021/07/08 22:54:52;192155.00;0.64;332.42;68273.00;0.23;118.78;;;;;21.50;5.20;;;;;;2249079;61;1036;-92
2021/07/08 22:57:19;19222.00;0.06;33.92;0.00;0.00;0.62;;;;;21.80;4.90;;;;;;2252616;61;1022;-92
2021/07/08 22:59:46;145645.00;0.49;252.30;0.00;0.00;0.62;;;;;21.90;4.40;;;;;;2253712;61;1412;-92
2021/07/08 23:02:13;379853.00;1.27;655.17;0.00;0.00;0.62;;;;;22.00;2.70;;;;;;2260901;61;955;-92
2021/07/08 23:04:42;84500.00;0.28;146.81;0.00;0.00;0.62;;;;;22.10;3.40;;;;;;2260934;61;999;-92
2021/07/08 23:07:08;321121.00;1.07;554.22;112899.00;0.38;195.83;;;;;22.10;3.20;;;;;;2260823;61;1582;-91
2021/07/08 23:09:35;170348.00;0.57;294.87;64068.00;0.21;111.51;;;;;22.30;3.00;;;;;;2256416;61;1435;-92
2021/07/08 23:12:03;0.00;0.00;0.62;0.00;0.00;0.62;;;;;22.30;2.80;;;;;;2244490;61;2001;-92
2021/07/08 23:14:30;0.00;0.00;0.62;0.00;0.00;0.62;;;;;22.30;2.40;;;;;;2244536;61;940;-92
2021/07/08 23:16:57;101031.00;0.34;175.35;0.00;0.00;0.62;;;;;22.50;2.30;;;;;;2244620;61;1044;-92
2021/07/08 23:19:24;103646.00;0.35;179.86;0.00;0.00;0.62;;;;;22.40;2.40;;;;;;2244587;61;1291;-92
2021/07/08 23:21:52;51028.00;0.17;88.96;0.00;0.00;0.62;;;;;22.40;2.10;;;;;;2244587;61;1045;-91
2021/07/08 23:24:19;103613.00;0.35;179.81;0.00;0.00;0.62;;;;;22.20;2.70;;;;;;2244451;61;1115;-91
2021/07/08 23:26:46;200001.00;0.67;345.93;22548.00;0.08;39.68;;;;;21.80;3.00;;;;;;2238868;61;1086;-91
2021/07/08 23:29:14;96257.00;0.32;167.11;0.00;0.00;0.62;;;;;21.70;3.70;;;;;;2253442;61;1038;-91
2021/07/08 23:31:41;74929.00;0.25;130.28;0.00;0.00;0.62;;;;;21.90;3.20;;;;;;2260431;61;1412;-92
2021/07/08 23:34:09;63569.00;0.21;110.65;0.00;0.00;0.62;;;;;21.90;3.50;;;;;;2260858;61;1997;-92
2021/07/08 23:36:36;168042.00;0.56;290.89;0.00;0.00;0.62;;;;;21.90;3.60;;;;;;2260861;61;1008;-93
2021/07/08 23:39:12;29229.00;0.10;51.25;0.00;0.00;0.62;;;;;21.80;3.70;;;;;;2256392;61;985;-92
2021/07/08 23:41:40;225046.00;0.75;389.03;77130.00;0.26;134.08;;;;;21.60;3.50;;;;;;2256423;61;1310;-92
